sensor_id;sensor_type;location;lat;lon;timestamp;P1;durP1;ratioP1;P2;durP2;ratioP2
64678;SDS011;51094;53.864;27.676;2023-08-31T00:00:02;2.10;;;2.10;;
64678;SDS011;51094;53.864;27.676;2023-08-31T00:04:58;2.13;;;2.13;;
64678;SDS011;51094;53.864;27.676;2023-08-31T00:07:25;2.20;;;2.20;;
64678;SDS011;51094;53.864;27.676;2023-08-31T00:09:52;2.25;;;2.25;;
64678;SDS011;51094;53.864;27.676;2023-08-31T00:12:19;2.10;;;2.10;;
64678;SDS011;51094;53.864;27.676;2023-08-31T00:14:46;2.28;;;2.28;;
64678;SDS011;51094;53.864;27.676;2023-08-31T00:17:13;2.20;;;2.20;;
64678;SDS011;51094;53.864;27.676;2023-08-31T00:19:39;2.20;;;2.20;;
64678;SDS011;51094;53.864;27.676;2023-08-31T00:22:06;2.00;;;2.00;;
64678;SDS011;51094;53.864;27.676;2023-08-31T00:24:33;2.45;;;2.45;;
64678;SDS011;51094;53.864;27.676;2023-08-31T00:27:03;2.20;;;2.20;;
64678;SDS011;51094;53.864;27.676;2023-08-31T00:29:33;2.17;;;2.17;;
64678;SDS011;51094;53.864;27.676;2023-08-31T00:32:00;2.30;;;2.30;;
64678;SDS011;51094;53.864;27.676;2023-08-31T00:34:27;2.20;;;2.20;;
64678;SDS011;51094;53.864;27.676;2023-08-31T00:36:53;2.20;;;2.20;;
64678;SDS011;51094;53.864;27.676;2023-08-31T00:39:21;2.40;;;2.40;;
64678;SDS011;51094;53.864;27.676;2023-08-31T00:41:47;2.13;;;2.13;;
64678;SDS011;51094;53.864;27.676;2023-08-31T00:44:14;2.20;;;2.20;;
64678;SDS011;51094;53.864;27.676;2023-08-31T00:46:47;2.10;;;2.10;;
64678;SDS011;51094;53.864;27.676;2023-08-31T00:49:14;2.00;;;2.00;;
64678;SDS011;51094;53.864;27.676;2023-08-31T00:51:42;2.40;;;2.40;;
64678;SDS011;51094;53.864;27.676;2023-08-31T00:54:13;2.10;;;2.10;;
64678;SDS011;51094;53.864;27.676;2023-08-31T00:56:40;2.38;;;2.38;;
64678;SDS011;51094;53.864;27.676;2023-08-31T00:59:07;2.30;;;2.30;;
64678;SDS011;51094;53.864;27.676;2023-08-31T01:04:18;2.15;;;2.15;;
64678;SDS011;51094;53.864;27.676;2023-08-31T01:07:03;2.15;;;2.15;;
64678;SDS011;51094;53.864;27.676;2023-08-31T01:12:34;2.50;;;2.50;;
64678;SDS011;51094;53.864;27.676;2023-08-31T01:15:10;2.17;;;2.17;;
64678;SDS011;51094;53.864;27.676;2023-08-31T01:17:44;2.17;;;2.17;;
64678;SDS011;51094;53.864;27.676;2023-08-31T01:20:15;2.05;;;2.05;;
64678;SDS011;51094;53.864;27.676;2023-08-31T01:22:48;2.40;;;2.40;;
64678;SDS011;51094;53.864;27.676;2023-08-31T01:25:22;2.30;;;2.30;;
64678;SDS011;51094;53.864;27.676;2023-08-31T01:27:49;2.30;;;2.30;;
64678;SDS011;51094;53.864;27.676;2023-08-31T01:30:17;2.42;;;2.42;;
64678;SDS011;51094;53.864;27.676;2023-08-31T01:32:44;2.30;;;2.30;;
64678;SDS011;51094;53.864;27.676;2023-08-31T01:35:12;2.33;;;2.33;;
64678;SDS011;51094;53.864;27.676;2023-08-31T01:37:50;2.58;;;2.50;;
64678;SDS011;51094;53.864;27.676;2023-08-31T01:40:27;2.28;;;2.28;;
64678;SDS011;51094;53.864;27.676;2023-08-31T01:43:04;2.10;;;2.10;;
64678;SDS011;51094;53.864;27.676;2023-08-31T01:45:33;2.20;;;2.20;;
64678;SDS011;51094;53.864;27.676;2023-08-31T01:48:01;2.25;;;2.25;;
64678;SDS011;51094;53.864;27.676;2023-08-31T01:50:28;2.10;;;2.10;;
64678;SDS011;51094;53.864;27.676;2023-08-31T01:52:55;2.10;;;2.10;;
64678;SDS011;51094;53.864;27.676;2023-08-31T01:55:23;2.10;;;2.10;;
64678;SDS011;51094;53.864;27.676;2023-08-31T01:57:50;2.38;;;2.38;;
64678;SDS011;51094;53.864;27.676;2023-08-31T02:00:21;2.90;;;2.80;;
64678;SDS011;51094;53.864;27.676;2023-08-31T02:02:48;2.40;;;2.30;;
64678;SDS011;51094;53.864;27.676;2023-08-31T02:05:15;2.38;;;2.28;;
64678;SDS011;51094;53.864;27.676;2023-08-31T02:07:42;2.22;;;2.22;;
64678;SDS011;51094;53.864;27.676;2023-08-31T02:10:09;2.72;;;2.63;;
64678;SDS011;51094;53.864;27.676;2023-08-31T02:12:36;2.67;;;2.53;;
64678;SDS011;51094;53.864;27.676;2023-08-31T02:15:04;2.60;;;2.50;;
64678;SDS011;51094;53.864;27.676;2023-08-31T02:17:35;2.72;;;2.63;;
64678;SDS011;51094;53.864;27.676;2023-08-31T02:22:33;2.45;;;2.38;;
64678;SDS011;51094;53.864;27.676;2023-08-31T02:25:00;2.10;;;2.10;;
64678;SDS011;51094;53.864;27.676;2023-08-31T02:27:28;2.63;;;2.60;;
64678;SDS011;51094;53.864;27.676;2023-08-31T02:29:54;2.30;;;2.30;;
64678;SDS011;51094;53.864;27.676;2023-08-31T02:32:22;2.30;;;2.30;;
64678;SDS011;51094;53.864;27.676;2023-08-31T02:34:49;2.50;;;2.50;;
64678;SDS011;51094;53.864;27.676;2023-08-31T02:37:17;2.38;;;2.38;;
64678;SDS011;51094;53.864;27.676;2023-08-31T02:39:44;2.58;;;2.47;;
64678;SDS011;51094;53.864;27.676;2023-08-31T02:42:11;2.20;;;2.20;;
64678;SDS011;51094;53.864;27.676;2023-08-31T02:44:38;2.50;;;2.50;;
64678;SDS011;51094;53.864;27.676;2023-08-31T02:47:05;2.40;;;2.40;;
64678;SDS011;51094;53.864;27.676;2023-08-31T02:49:32;2.65;;;2.58;;
64678;SDS011;51094;53.864;27.676;2023-08-31T02:51:59;2.40;;;2.40;;
64678;SDS011;51094;53.864;27.676;2023-08-31T02:54:26;2.40;;;2.40;;
64678;SDS011;51094;53.864;27.676;2023-08-31T02:56:53;2.30;;;2.30;;
64678;SDS011;51094;53.864;27.676;2023-08-31T02:59:20;2.30;;;2.30;;
64678;SDS011;51094;53.864;27.676;2023-08-31T03:01:48;2.40;;;2.40;;
64678;SDS011;51094;53.864;27.676;2023-08-31T03:04:15;2.30;;;2.30;;
64678;SDS011;51094;53.864;27.676;2023-08-31T03:06:44;2.27;;;2.27;;
64678;SDS011;51094;53.864;27.676;2023-08-31T03:09:12;2.22;;;2.22;;
64678;SDS011;51094;53.864;27.676;2023-08-31T03:11:40;2.60;;;2.60;;
64678;SDS011;51094;53.864;27.676;2023-08-31T03:14:07;2.42;;;2.42;;
64678;SDS011;51094;53.864;27.676;2023-08-31T03:16:36;2.43;;;2.43;;
64678;SDS011;51094;53.864;27.676;2023-08-31T03:19:03;2.25;;;2.25;;
64678;SDS011;51094;53.864;27.676;2023-08-31T03:21:30;2.50;;;2.50;;
64678;SDS011;51094;53.864;27.676;2023-08-31T03:23:59;2.38;;;2.38;;
64678;SDS011;51094;53.864;27.676;2023-08-31T03:26:26;2.40;;;2.40;;
64678;SDS011;51094;53.864;27.676;2023-08-31T03:28:53;2.55;;;2.55;;
64678;SDS011;51094;53.864;27.676;2023-08-31T03:31:21;2.90;;;2.90;;
64678;SDS011;51094;53.864;27.676;2023-08-31T03:33:48;2.63;;;2.63;;
64678;SDS011;51094;53.864;27.676;2023-08-31T03:36:16;2.70;;;2.70;;
64678;SDS011;51094;53.864;27.676;2023-08-31T03:38:43;2.35;;;2.35;;
64678;SDS011;51094;53.864;27.676;2023-08-31T03:41:10;2.42;;;2.40;;
64678;SDS011;51094;53.864;27.676;2023-08-31T03:43:38;2.50;;;2.50;;
64678;SDS011;51094;53.864;27.676;2023-08-31T03:46:05;2.53;;;2.53;;
64678;SDS011;51094;53.864;27.676;2023-08-31T03:48:32;3.00;;;3.00;;
64678;SDS011;51094;53.864;27.676;2023-08-31T03:50:59;2.47;;;2.47;;
64678;SDS011;51094;53.864;27.676;2023-08-31T03:53:26;2.58;;;2.58;;
64678;SDS011;51094;53.864;27.676;2023-08-31T03:55:56;2.40;;;2.40;;
64678;SDS011;51094;53.864;27.676;2023-08-31T03:58:24;2.50;;;2.50;;
64678;SDS011;51094;53.864;27.676;2023-08-31T04:00:52;2.63;;;2.63;;
64678;SDS011;51094;53.864;27.676;2023-08-31T04:03:19;2.28;;;2.28;;
64678;SDS011;51094;53.864;27.676;2023-08-31T04:05:47;2.47;;;2.47;;
64678;SDS011;51094;53.864;27.676;2023-08-31T04:08:14;2.85;;;2.85;;
64678;SDS011;51094;53.864;27.676;2023-08-31T04:10:41;2.83;;;2.83;;
64678;SDS011;51094;53.864;27.676;2023-08-31T04:13:08;2.90;;;2.80;;
64678;SDS011;51094;53.864;27.676;2023-08-31T04:15:35;2.83;;;2.83;;
64678;SDS011;51094;53.864;27.676;2023-08-31T04:18:03;2.63;;;2.63;;
64678;SDS011;51094;53.864;27.676;2023-08-31T04:20:30;3.00;;;3.00;;
64678;SDS011;51094;53.864;27.676;2023-08-31T04:22:59;3.30;;;3.20;;
64678;SDS011;51094;53.864;27.676;2023-08-31T04:25:28;2.92;;;2.92;;
64678;SDS011;51094;53.864;27.676;2023-08-31T04:27:55;2.95;;;2.95;;
64678;SDS011;51094;53.864;27.676;2023-08-31T04:30:23;3.00;;;3.00;;
64678;SDS011;51094;53.864;27.676;2023-08-31T04:32:49;2.80;;;2.80;;
64678;SDS011;51094;53.864;27.676;2023-08-31T04:35:16;2.80;;;2.80;;
64678;SDS011;51094;53.864;27.676;2023-08-31T04:37:44;3.20;;;3.20;;
64678;SDS011;51094;53.864;27.676;2023-08-31T04:40:11;2.70;;;2.70;;
64678;SDS011;51094;53.864;27.676;2023-08-31T04:42:39;2.85;;;2.85;;
64678;SDS011;51094;53.864;27.676;2023-08-31T04:45:07;3.10;;;3.10;;
64678;SDS011;51094;53.864;27.676;2023-08-31T04:47:34;3.00;;;3.00;;
64678;SDS011;51094;53.864;27.676;2023-08-31T04:50:01;2.90;;;2.90;;
64678;SDS011;51094;53.864;27.676;2023-08-31T04:52:27;2.80;;;2.80;;
64678;SDS011;51094;53.864;27.676;2023-08-31T04:54:54;3.00;;;3.00;;
64678;SDS011;51094;53.864;27.676;2023-08-31T04:57:21;2.85;;;2.85;;
64678;SDS011;51094;53.864;27.676;2023-08-31T04:59:48;2.75;;;2.75;;
64678;SDS011;51094;53.864;27.676;2023-08-31T05:02:15;3.00;;;3.00;;
64678;SDS011;51094;53.864;27.676;2023-08-31T05:04:42;3.30;;;3.20;;
64678;SDS011;51094;53.864;27.676;2023-08-31T05:07:08;3.03;;;3.03;;
64678;SDS011;51094;53.864;27.676;2023-08-31T05:09:35;3.00;;;3.00;;
64678;SDS011;51094;53.864;27.676;2023-08-31T05:12:02;3.20;;;3.20;;
64678;SDS011;51094;53.864;27.676;2023-08-31T05:14:29;3.33;;;3.30;;
64678;SDS011;51094;53.864;27.676;2023-08-31T05:16:56;3.15;;;3.15;;
64678;SDS011;51094;53.864;27.676;2023-08-31T05:19:23;3.00;;;3.00;;
64678;SDS011;51094;53.864;27.676;2023-08-31T05:21:53;3.00;;;3.00;;
64678;SDS011;51094;53.864;27.676;2023-08-31T05:24:20;3.10;;;3.10;;
64678;SDS011;51094;53.864;27.676;2023-08-31T05:26:47;3.00;;;2.92;;
64678;SDS011;51094;53.864;27.676;2023-08-31T05:29:14;3.35;;;3.25;;
64678;SDS011;51094;53.864;27.676;2023-08-31T05:31:40;3.03;;;3.03;;
64678;SDS011;51094;53.864;27.676;2023-08-31T05:34:09;3.05;;;3.05;;
64678;SDS011;51094;53.864;27.676;2023-08-31T05:36:36;2.80;;;2.80;;
64678;SDS011;51094;53.864;27.676;2023-08-31T05:39:03;2.90;;;2.85;;
64678;SDS011;51094;53.864;27.676;2023-08-31T05:41:30;3.10;;;3.10;;
64678;SDS011;51094;53.864;27.676;2023-08-31T05:43:57;3.10;;;3.10;;
64678;SDS011;51094;53.864;27.676;2023-08-31T05:46:24;3.35;;;3.35;;
64678;SDS011;51094;53.864;27.676;2023-08-31T05:48:51;3.10;;;3.10;;
64678;SDS011;51094;53.864;27.676;2023-08-31T05:51:19;3.17;;;3.17;;
64678;SDS011;51094;53.864;27.676;2023-08-31T05:53:46;3.15;;;3.15;;
64678;SDS011;51094;53.864;27.676;2023-08-31T05:56:12;2.88;;;2.88;;
64678;SDS011;51094;53.864;27.676;2023-08-31T05:58:39;2.97;;;2.97;;
64678;SDS011;51094;53.864;27.676;2023-08-31T06:01:06;3.22;;;3.22;;
64678;SDS011;51094;53.864;27.676;2023-08-31T06:03:33;3.15;;;3.15;;
64678;SDS011;51094;53.864;27.676;2023-08-31T06:06:01;3.30;;;3.30;;
64678;SDS011;51094;53.864;27.676;2023-08-31T06:08:28;3.45;;;3.45;;
64678;SDS011;51094;53.864;27.676;2023-08-31T06:10:56;3.50;;;3.40;;
64678;SDS011;51094;53.864;27.676;2023-08-31T06:13:23;3.50;;;3.47;;
64678;SDS011;51094;53.864;27.676;2023-08-31T06:15:50;3.78;;;3.70;;
64678;SDS011;51094;53.864;27.676;2023-08-31T06:18:17;3.60;;;3.60;;
64678;SDS011;51094;53.864;27.676;2023-08-31T06:20:44;3.40;;;3.40;;
64678;SDS011;51094;53.864;27.676;2023-08-31T06:23:11;3.65;;;3.65;;
64678;SDS011;51094;53.864;27.676;2023-08-31T06:25:39;3.58;;;3.58;;
64678;SDS011;51094;53.864;27.676;2023-08-31T06:28:05;3.90;;;3.80;;
64678;SDS011;51094;53.864;27.676;2023-08-31T06:33:02;3.17;;;3.08;;
64678;SDS011;51094;53.864;27.676;2023-08-31T06:35:29;4.00;;;3.90;;
64678;SDS011;51094;53.864;27.676;2023-08-31T06:37:57;3.30;;;3.30;;
64678;SDS011;51094;53.864;27.676;2023-08-31T06:40:24;3.50;;;3.40;;
64678;SDS011;51094;53.864;27.676;2023-08-31T06:42:51;3.35;;;3.30;;
64678;SDS011;51094;53.864;27.676;2023-08-31T06:45:18;3.28;;;3.28;;
64678;SDS011;51094;53.864;27.676;2023-08-31T06:47:45;2.88;;;2.88;;
64678;SDS011;51094;53.864;27.676;2023-08-31T06:50:12;3.03;;;3.03;;
64678;SDS011;51094;53.864;27.676;2023-08-31T06:52:39;2.90;;;2.90;;
64678;SDS011;51094;53.864;27.676;2023-08-31T06:55:07;3.00;;;3.00;;
64678;SDS011;51094;53.864;27.676;2023-08-31T06:57:37;3.05;;;3.05;;
64678;SDS011;51094;53.864;27.676;2023-08-31T07:00:04;2.90;;;2.85;;
64678;SDS011;51094;53.864;27.676;2023-08-31T07:02:37;3.05;;;3.00;;
64678;SDS011;51094;53.864;27.676;2023-08-31T07:05:06;3.30;;;3.30;;
64678;SDS011;51094;53.864;27.676;2023-08-31T07:07:33;2.92;;;2.92;;
64678;SDS011;51094;53.864;27.676;2023-08-31T07:10:00;3.45;;;3.45;;
64678;SDS011;51094;53.864;27.676;2023-08-31T07:12:27;3.58;;;3.58;;
64678;SDS011;51094;53.864;27.676;2023-08-31T07:14:54;3.50;;;3.40;;
64678;SDS011;51094;53.864;27.676;2023-08-31T07:17:20;3.20;;;3.10;;
64678;SDS011;51094;53.864;27.676;2023-08-31T07:19:47;3.00;;;3.00;;
64678;SDS011;51094;53.864;27.676;2023-08-31T07:22:14;3.28;;;3.17;;
64678;SDS011;51094;53.864;27.676;2023-08-31T07:24:41;3.20;;;3.20;;
64678;SDS011;51094;53.864;27.676;2023-08-31T07:27:08;3.40;;;3.30;;
64678;SDS011;51094;53.864;27.676;2023-08-31T07:29:35;2.75;;;2.75;;
64678;SDS011;51094;53.864;27.676;2023-08-31T07:32:02;3.00;;;2.90;;
64678;SDS011;51094;53.864;27.676;2023-08-31T07:34:29;2.88;;;2.88;;
64678;SDS011;51094;53.864;27.676;2023-08-31T07:36:59;2.80;;;2.80;;
64678;SDS011;51094;53.864;27.676;2023-08-31T07:39:26;2.78;;;2.78;;
64678;SDS011;51094;53.864;27.676;2023-08-31T07:41:54;2.40;;;2.40;;
64678;SDS011;51094;53.864;27.676;2023-08-31T07:44:21;2.50;;;2.50;;
64678;SDS011;51094;53.864;27.676;2023-08-31T07:46:48;2.20;;;2.20;;
64678;SDS011;51094;53.864;27.676;2023-08-31T07:49:15;2.80;;;2.80;;
64678;SDS011;51094;53.864;27.676;2023-08-31T07:51:42;2.25;;;2.25;;
64678;SDS011;51094;53.864;27.676;2023-08-31T07:54:09;2.20;;;2.20;;
64678;SDS011;51094;53.864;27.676;2023-08-31T07:56:36;2.28;;;2.28;;
64678;SDS011;51094;53.864;27.676;2023-08-31T07:59:03;2.60;;;2.60;;
64678;SDS011;51094;53.864;27.676;2023-08-31T08:01:29;2.50;;;2.50;;
64678;SDS011;51094;53.864;27.676;2023-08-31T08:03:56;2.70;;;2.70;;
64678;SDS011;51094;53.864;27.676;2023-08-31T08:06:23;2.60;;;2.60;;
64678;SDS011;51094;53.864;27.676;2023-08-31T08:08:50;2.83;;;2.83;;
64678;SDS011;51094;53.864;27.676;2023-08-31T08:11:17;2.88;;;2.88;;
64678;SDS011;51094;53.864;27.676;2023-08-31T08:13:44;3.25;;;3.17;;
64678;SDS011;51094;53.864;27.676;2023-08-31T08:16:11;3.13;;;3.03;;
64678;SDS011;51094;53.864;27.676;2023-08-31T08:18:38;2.50;;;2.50;;
64678;SDS011;51094;53.864;27.676;2023-08-31T08:21:06;2.47;;;2.47;;
64678;SDS011;51094;53.864;27.676;2023-08-31T08:23:33;2.28;;;2.28;;
64678;SDS011;51094;53.864;27.676;2023-08-31T08:26:01;2.30;;;2.30;;
64678;SDS011;51094;53.864;27.676;2023-08-31T08:28:28;2.17;;;2.17;;
64678;SDS011;51094;53.864;27.676;2023-08-31T08:30:54;2.25;;;2.25;;
64678;SDS011;51094;53.864;27.676;2023-08-31T08:33:22;2.20;;;2.20;;
64678;SDS011;51094;53.864;27.676;2023-08-31T08:35:49;2.25;;;2.25;;
64678;SDS011;51094;53.864;27.676;2023-08-31T08:38:16;2.30;;;2.30;;
64678;SDS011;51094;53.864;27.676;2023-08-31T08:40:43;2.30;;;2.30;;
64678;SDS011;51094;53.864;27.676;2023-08-31T08:43:10;2.50;;;2.50;;
64678;SDS011;51094;53.864;27.676;2023-08-31T08:45:38;2.28;;;2.28;;
64678;SDS011;51094;53.864;27.676;2023-08-31T08:50:36;2.33;;;2.33;;
64678;SDS011;51094;53.864;27.676;2023-08-31T08:53:06;2.20;;;2.20;;
64678;SDS011;51094;53.864;27.676;2023-08-31T08:55:33;2.20;;;2.20;;
64678;SDS011;51094;53.864;27.676;2023-08-31T08:58:01;2.10;;;2.10;;
64678;SDS011;51094;53.864;27.676;2023-08-31T09:00:27;2.03;;;2.03;;
64678;SDS011;51094;53.864;27.676;2023-08-31T09:02:55;2.10;;;2.10;;
64678;SDS011;51094;53.864;27.676;2023-08-31T09:05:23;2.08;;;2.08;;
64678;SDS011;51094;53.864;27.676;2023-08-31T09:10:33;1.85;;;1.85;;
64678;SDS011;51094;53.864;27.676;2023-08-31T09:13:04;1.80;;;1.80;;
64678;SDS011;51094;53.864;27.676;2023-08-31T09:15:36;1.90;;;1.90;;
64678;SDS011;51094;53.864;27.676;2023-08-31T09:18:05;2.13;;;2.13;;
64678;SDS011;51094;53.864;27.676;2023-08-31T09:20:42;1.95;;;1.95;;
64678;SDS011;51094;53.864;27.676;2023-08-31T09:23:10;1.92;;;1.92;;
64678;SDS011;51094;53.864;27.676;2023-08-31T09:25:40;1.77;;;1.77;;
64678;SDS011;51094;53.864;27.676;2023-08-31T09:28:12;1.80;;;1.80;;
64678;SDS011;51094;53.864;27.676;2023-08-31T09:30:40;2.00;;;2.00;;
64678;SDS011;51094;53.864;27.676;2023-08-31T09:33:13;1.70;;;1.70;;
64678;SDS011;51094;53.864;27.676;2023-08-31T09:35:49;2.03;;;2.03;;
64678;SDS011;51094;53.864;27.676;2023-08-31T09:38:18;2.03;;;2.03;;
64678;SDS011;51094;53.864;27.676;2023-08-31T09:40:45;1.90;;;1.90;;
64678;SDS011;51094;53.864;27.676;2023-08-31T09:43:31;1.90;;;1.90;;
64678;SDS011;51094;53.864;27.676;2023-08-31T09:45:58;1.90;;;1.90;;
64678;SDS011;51094;53.864;27.676;2023-08-31T09:50:54;1.85;;;1.85;;
64678;SDS011;51094;53.864;27.676;2023-08-31T09:53:25;1.90;;;1.90;;
64678;SDS011;51094;53.864;27.676;2023-08-31T09:55:56;1.92;;;1.92;;
64678;SDS011;51094;53.864;27.676;2023-08-31T09:58:23;1.80;;;1.80;;
64678;SDS011;51094;53.864;27.676;2023-08-31T10:00:51;1.90;;;1.90;;
64678;SDS011;51094;53.864;27.676;2023-08-31T10:03:20;1.90;;;1.90;;
64678;SDS011;51094;53.864;27.676;2023-08-31T10:05:48;1.95;;;1.95;;
64678;SDS011;51094;53.864;27.676;2023-08-31T10:08:17;2.10;;;2.00;;
64678;SDS011;51094;53.864;27.676;2023-08-31T10:10:44;1.80;;;1.80;;
64678;SDS011;51094;53.864;27.676;2023-08-31T10:13:13;1.80;;;1.80;;
64678;SDS011;51094;53.864;27.676;2023-08-31T10:15:43;2.08;;;2.08;;
64678;SDS011;51094;53.864;27.676;2023-08-31T10:18:11;1.98;;;1.98;;
64678;SDS011;51094;53.864;27.676;2023-08-31T10:20:39;2.00;;;2.00;;
64678;SDS011;51094;53.864;27.676;2023-08-31T10:23:09;2.10;;;2.00;;
64678;SDS011;51094;53.864;27.676;2023-08-31T10:28:25;1.80;;;1.80;;
64678;SDS011;51094;53.864;27.676;2023-08-31T10:31:01;1.80;;;1.80;;
64678;SDS011;51094;53.864;27.676;2023-08-31T10:33:34;1.80;;;1.80;;
64678;SDS011;51094;53.864;27.676;2023-08-31T10:36:09;1.65;;;1.65;;
64678;SDS011;51094;53.864;27.676;2023-08-31T10:38:37;2.10;;;2.00;;
64678;SDS011;51094;53.864;27.676;2023-08-31T10:43:46;1.58;;;1.58;;
64678;SDS011;51094;53.864;27.676;2023-08-31T10:46:15;1.75;;;1.75;;
64678;SDS011;51094;53.864;27.676;2023-08-31T10:48:51;1.60;;;1.60;;
64678;SDS011;51094;53.864;27.676;2023-08-31T10:51:21;1.63;;;1.63;;
64678;SDS011;51094;53.864;27.676;2023-08-31T10:53:49;1.67;;;1.67;;
64678;SDS011;51094;53.864;27.676;2023-08-31T10:56:16;1.52;;;1.52;;
64678;SDS011;51094;53.864;27.676;2023-08-31T10:58:59;1.55;;;1.55;;
64678;SDS011;51094;53.864;27.676;2023-08-31T11:04:24;1.30;;;1.30;;
64678;SDS011;51094;53.864;27.676;2023-08-31T11:09:41;1.40;;;1.40;;
64678;SDS011;51094;53.864;27.676;2023-08-31T11:12:09;1.42;;;1.42;;
64678;SDS011;51094;53.864;27.676;2023-08-31T11:14:36;1.40;;;1.40;;
64678;SDS011;51094;53.864;27.676;2023-08-31T11:17:03;1.50;;;1.50;;
64678;SDS011;51094;53.864;27.676;2023-08-31T11:19:33;1.60;;;1.60;;
64678;SDS011;51094;53.864;27.676;2023-08-31T11:22:01;1.45;;;1.45;;
64678;SDS011;51094;53.864;27.676;2023-08-31T11:24:29;1.48;;;1.48;;
64678;SDS011;51094;53.864;27.676;2023-08-31T11:26:57;1.75;;;1.65;;
64678;SDS011;51094;53.864;27.676;2023-08-31T11:29:24;1.48;;;1.48;;
64678;SDS011;51094;53.864;27.676;2023-08-31T11:31:51;1.60;;;1.60;;
64678;SDS011;51094;53.864;27.676;2023-08-31T11:34:18;1.50;;;1.50;;
64678;SDS011;51094;53.864;27.676;2023-08-31T11:36:46;1.42;;;1.42;;
64678;SDS011;51094;53.864;27.676;2023-08-31T11:39:13;1.40;;;1.40;;
64678;SDS011;51094;53.864;27.676;2023-08-31T11:41:41;1.20;;;1.20;;
64678;SDS011;51094;53.864;27.676;2023-08-31T11:44:09;1.45;;;1.45;;
64678;SDS011;51094;53.864;27.676;2023-08-31T11:46:38;1.30;;;1.30;;
64678;SDS011;51094;53.864;27.676;2023-08-31T11:49:06;1.30;;;1.30;;
64678;SDS011;51094;53.864;27.676;2023-08-31T11:51:33;1.30;;;1.30;;
64678;SDS011;51094;53.864;27.676;2023-08-31T11:54:01;1.50;;;1.50;;
64678;SDS011;51094;53.864;27.676;2023-08-31T11:56:38;1.40;;;1.40;;
64678;SDS011;51094;53.864;27.676;2023-08-31T11:59:18;1.40;;;1.40;;
64678;SDS011;51094;53.864;27.676;2023-08-31T12:01:46;1.30;;;1.30;;
64678;SDS011;51094;53.864;27.676;2023-08-31T12:04:15;1.30;;;1.30;;
64678;SDS011;51094;53.864;27.676;2023-08-31T12:06:46;1.60;;;1.60;;
64678;SDS011;51094;53.864;27.676;2023-08-31T12:09:17;1.42;;;1.42;;
64678;SDS011;51094;53.864;27.676;2023-08-31T12:11:50;1.30;;;1.30;;
64678;SDS011;51094;53.864;27.676;2023-08-31T12:14:21;1.30;;;1.30;;
64678;SDS011;51094;53.864;27.676;2023-08-31T12:16:59;1.40;;;1.40;;
64678;SDS011;51094;53.864;27.676;2023-08-31T12:19:30;1.40;;;1.40;;
64678;SDS011;51094;53.864;27.676;2023-08-31T12:21:58;1.70;;;1.70;;
64678;SDS011;51094;53.864;27.676;2023-08-31T12:24:25;1.65;;;1.65;;
64678;SDS011;51094;53.864;27.676;2023-08-31T12:26:52;1.40;;;1.40;;
64678;SDS011;51094;53.864;27.676;2023-08-31T12:29:23;1.35;;;1.35;;
64678;SDS011;51094;53.864;27.676;2023-08-31T12:31:50;1.67;;;1.67;;
64678;SDS011;51094;53.864;27.676;2023-08-31T12:34:17;1.50;;;1.50;;
64678;SDS011;51094;53.864;27.676;2023-08-31T12:36:44;1.52;;;1.52;;
64678;SDS011;51094;53.864;27.676;2023-08-31T12:39:11;1.23;;;1.23;;
64678;SDS011;51094;53.864;27.676;2023-08-31T12:41:39;1.30;;;1.30;;
64678;SDS011;51094;53.864;27.676;2023-08-31T12:44:07;1.30;;;1.30;;
64678;SDS011;51094;53.864;27.676;2023-08-31T12:46:34;1.30;;;1.30;;
64678;SDS011;51094;53.864;27.676;2023-08-31T12:49:01;1.30;;;1.30;;
64678;SDS011;51094;53.864;27.676;2023-08-31T12:51:33;1.10;;;1.10;;
64678;SDS011;51094;53.864;27.676;2023-08-31T12:54:00;1.10;;;1.10;;
64678;SDS011;51094;53.864;27.676;2023-08-31T12:56:27;1.10;;;1.10;;
64678;SDS011;51094;53.864;27.676;2023-08-31T12:58:54;1.00;;;1.00;;
64678;SDS011;51094;53.864;27.676;2023-08-31T13:01:21;0.93;;;0.93;;
64678;SDS011;51094;53.864;27.676;2023-08-31T13:03:49;1.20;;;1.20;;
64678;SDS011;51094;53.864;27.676;2023-08-31T13:06:16;1.10;;;1.10;;
64678;SDS011;51094;53.864;27.676;2023-08-31T13:08:44;1.10;;;1.10;;
64678;SDS011;51094;53.864;27.676;2023-08-31T13:11:11;1.20;;;1.20;;
64678;SDS011;51094;53.864;27.676;2023-08-31T13:13:41;1.10;;;1.10;;
64678;SDS011;51094;53.864;27.676;2023-08-31T13:16:09;1.23;;;1.23;;
64678;SDS011;51094;53.864;27.676;2023-08-31T13:18:36;1.00;;;1.00;;
64678;SDS011;51094;53.864;27.676;2023-08-31T13:21:03;1.02;;;1.02;;
64678;SDS011;51094;53.864;27.676;2023-08-31T13:23:30;1.20;;;1.20;;
64678;SDS011;51094;53.864;27.676;2023-08-31T13:25:56;1.00;;;1.00;;
64678;SDS011;51094;53.864;27.676;2023-08-31T13:28:24;1.10;;;1.10;;
64678;SDS011;51094;53.864;27.676;2023-08-31T13:30:57;1.20;;;1.20;;
64678;SDS011;51094;53.864;27.676;2023-08-31T13:33:27;1.20;;;1.20;;
64678;SDS011;51094;53.864;27.676;2023-08-31T13:35:58;1.00;;;1.00;;
64678;SDS011;51094;53.864;27.676;2023-08-31T13:38:25;1.30;;;1.30;;
64678;SDS011;51094;53.864;27.676;2023-08-31T13:40:55;1.10;;;1.10;;
64678;SDS011;51094;53.864;27.676;2023-08-31T13:43:25;1.20;;;1.20;;
64678;SDS011;51094;53.864;27.676;2023-08-31T13:45:52;1.10;;;1.10;;
64678;SDS011;51094;53.864;27.676;2023-08-31T13:48:20;1.27;;;1.27;;
64678;SDS011;51094;53.864;27.676;2023-08-31T13:50:49;1.40;;;1.40;;
64678;SDS011;51094;53.864;27.676;2023-08-31T13:53:16;1.40;;;1.40;;
64678;SDS011;51094;53.864;27.676;2023-08-31T13:55:43;1.60;;;1.50;;
64678;SDS011;51094;53.864;27.676;2023-08-31T13:58:09;1.10;;;1.10;;
64678;SDS011;51094;53.864;27.676;2023-08-31T14:00:37;1.20;;;1.20;;
64678;SDS011;51094;53.864;27.676;2023-08-31T14:03:04;1.40;;;1.40;;
64678;SDS011;51094;53.864;27.676;2023-08-31T14:05:32;1.40;;;1.40;;
64678;SDS011;51094;53.864;27.676;2023-08-31T14:07:59;1.45;;;1.45;;
64678;SDS011;51094;53.864;27.676;2023-08-31T14:10:28;1.40;;;1.40;;
64678;SDS011;51094;53.864;27.676;2023-08-31T14:12:55;1.10;;;1.10;;
64678;SDS011;51094;53.864;27.676;2023-08-31T14:15:22;1.00;;;1.00;;
64678;SDS011;51094;53.864;27.676;2023-08-31T14:17:52;0.70;;;0.70;;
64678;SDS011;51094;53.864;27.676;2023-08-31T14:20:19;0.52;;;0.52;;
64678;SDS011;51094;53.864;27.676;2023-08-31T14:22:47;0.73;;;0.73;;
64678;SDS011;51094;53.864;27.676;2023-08-31T14:25:14;0.70;;;0.70;;
64678;SDS011;51094;53.864;27.676;2023-08-31T14:27:41;0.95;;;0.95;;
64678;SDS011;51094;53.864;27.676;2023-08-31T14:30:09;0.70;;;0.70;;
64678;SDS011;51094;53.864;27.676;2023-08-31T14:32:36;0.75;;;0.75;;
64678;SDS011;51094;53.864;27.676;2023-08-31T14:35:03;0.70;;;0.70;;
64678;SDS011;51094;53.864;27.676;2023-08-31T14:37:32;0.70;;;0.70;;
64678;SDS011;51094;53.864;27.676;2023-08-31T14:40:00;0.80;;;0.80;;
64678;SDS011;51094;53.864;27.676;2023-08-31T14:42:26;0.80;;;0.80;;
64678;SDS011;51094;53.864;27.676;2023-08-31T14:44:54;0.82;;;0.80;;
64678;SDS011;51094;53.864;27.676;2023-08-31T14:47:21;0.80;;;0.80;;
64678;SDS011;51094;53.864;27.676;2023-08-31T14:49:48;0.70;;;0.70;;
64678;SDS011;51094;53.864;27.676;2023-08-31T14:52:15;0.70;;;0.70;;
64678;SDS011;51094;53.864;27.676;2023-08-31T14:54:42;0.80;;;0.80;;
64678;SDS011;51094;53.864;27.676;2023-08-31T14:57:09;0.85;;;0.85;;
64678;SDS011;51094;53.864;27.676;2023-08-31T15:02:06;1.08;;;1.08;;
64678;SDS011;51094;53.864;27.676;2023-08-31T15:04:33;0.85;;;0.85;;
64678;SDS011;51094;53.864;27.676;2023-08-31T15:07:00;0.80;;;0.80;;
64678;SDS011;51094;53.864;27.676;2023-08-31T15:09:27;0.82;;;0.82;;
64678;SDS011;51094;53.864;27.676;2023-08-31T15:11:55;1.10;;;1.10;;